createdAt,value
2022-10-13T00:01:19.910Z,95176.78
2022-10-13T00:03:48.757Z,95188.22
2022-10-13T00:06:20.750Z,95188.81
2022-10-13T00:08:50.860Z,95184.56
2022-10-13T00:11:22.130Z,95176.88
2022-10-13T00:13:54.029Z,95179.16
2022-10-13T00:16:23.727Z,95183.31
2022-10-13T00:18:52.251Z,95182.03
2022-10-13T00:21:22.223Z,95175.84
2022-10-13T00:23:50.832Z,95162.09
2022-10-13T00:26:22.099Z,95168.69
2022-10-13T00:28:52.748Z,95172.28
2022-10-13T00:31:23.028Z,95169.88
2022-10-13T00:33:53.212Z,95162.63
2022-10-13T00:36:22.977Z,95162.75
2022-10-13T00:38:51.386Z,95154.25
2022-10-13T00:41:21.325Z,95154.84
2022-10-13T00:43:57.540Z,95161.44
2022-10-13T00:46:27.258Z,95151.72
2022-10-13T00:48:59.239Z,95154.31
2022-10-13T00:51:30.884Z,95141.91
2022-10-13T00:53:59.700Z,95152.91
2022-10-13T00:56:34.917Z,95145.09
2022-10-13T00:59:04.102Z,95137.75
2022-10-13T01:01:36.118Z,95151.09
2022-10-13T01:04:04.443Z,95141.63
2022-10-13T01:06:32.551Z,95145.91
2022-10-13T01:09:00.720Z,95136.31
2022-10-13T01:11:51.166Z,95130.28
2022-10-13T01:14:31.610Z,95144.06
2022-10-13T01:17:07.591Z,95144.97
2022-10-13T01:19:57.302Z,95141.16
2022-10-13T01:22:43.332Z,95126.78
2022-10-13T01:25:27.105Z,95136.28
2022-10-13T01:28:28.431Z,95146.13
2022-10-13T01:31:06.804Z,95136.28
2022-10-13T01:33:43.214Z,95141.75
2022-10-13T01:36:23.905Z,95141.75
2022-10-13T01:39:02.380Z,95140.44
2022-10-13T01:41:36.287Z,95134.06
2022-10-13T01:44:10.174Z,95139.63
2022-10-13T01:46:40.701Z,95129.91
2022-10-13T01:49:11.959Z,95128.94
2022-10-13T01:51:41.109Z,95137.78
2022-10-13T01:54:09.115Z,95131.75
2022-10-13T01:56:37.019Z,95127.09
2022-10-13T01:59:09.006Z,95128.34
2022-10-13T02:01:53.846Z,95134.88
2022-10-13T02:04:30.814Z,95129.47
2022-10-13T02:07:08.154Z,95125.72
2022-10-13T02:09:44.785Z,95130.06
2022-10-13T02:12:20.684Z,95134.44
2022-10-13T02:14:50.709Z,95133.91
2022-10-13T02:17:20.751Z,95129.91
2022-10-13T02:19:48.781Z,95129.09
2022-10-13T02:22:18.853Z,95122.13
2022-10-13T02:24:47.081Z,95128.00
2022-10-13T02:27:15.256Z,95123.25
2022-10-13T02:29:51.631Z,95129.47
2022-10-13T02:32:21.360Z,95113.25
2022-10-13T02:34:49.505Z,95115.84
2022-10-13T02:37:17.485Z,95112.13
2022-10-13T02:39:45.407Z,95113.31
2022-10-13T02:42:13.305Z,95110.34
2022-10-13T02:44:41.333Z,95110.69
2022-10-13T02:47:09.222Z,95110.13
2022-10-13T02:49:38.482Z,95106.22
2022-10-13T02:52:06.390Z,95098.00
2022-10-13T02:54:34.419Z,95103.41
2022-10-13T02:57:02.837Z,95100.13
2022-10-13T02:59:30.832Z,95086.44
2022-10-13T03:01:58.788Z,95079.25
2022-10-13T03:04:26.787Z,95084.97
2022-10-13T03:06:56.127Z,95086.81
2022-10-13T03:09:24.118Z,95082.59
2022-10-13T03:11:52.113Z,95081.47
2022-10-13T03:14:20.277Z,95084.91
2022-10-13T03:16:48.307Z,95084.69
2022-10-13T03:19:16.313Z,95090.25
2022-10-13T03:21:44.317Z,95084.31
2022-10-13T03:24:13.618Z,95098.28
2022-10-13T03:26:41.648Z,95089.34
2022-10-13T03:29:13.017Z,95096.94
2022-10-13T03:31:44.312Z,95091.47
2022-10-13T03:34:14.334Z,95091.84
2022-10-13T03:36:42.316Z,95098.66
2022-10-13T03:39:20.096Z,95094.88
2022-10-13T03:41:48.093Z,95095.41
2022-10-13T03:44:16.025Z,95101.94
2022-10-13T03:46:44.689Z,95102.81
2022-10-13T03:49:13.084Z,95095.69
2022-10-13T03:51:41.361Z,95096.91
2022-10-13T03:54:12.067Z,95099.13
2022-10-13T03:56:42.473Z,95093.47
2022-10-13T03:59:13.709Z,95075.94
2022-10-13T04:01:41.635Z,95092.84
2022-10-13T04:04:12.520Z,95088.19
2022-10-13T04:06:40.432Z,95087.44
2022-10-13T04:09:09.803Z,95083.13
2022-10-13T04:11:37.770Z,95082.84
2022-10-13T04:14:07.597Z,95092.63
2022-10-13T04:16:35.525Z,95086.75
2022-10-13T04:19:06.238Z,95086.75
2022-10-13T04:21:36.104Z,95084.97
2022-10-13T04:24:05.367Z,95085.88
2022-10-13T04:26:35.671Z,95087.88
2022-10-13T04:29:04.838Z,95087.56
2022-10-13T04:31:34.172Z,95086.91
2022-10-13T04:34:02.089Z,95084.47
2022-10-13T04:36:30.080Z,95079.16
2022-10-13T04:38:58.154Z,95084.38
2022-10-13T04:41:27.086Z,95080.84
2022-10-13T04:43:55.598Z,95076.31
2022-10-13T04:46:25.918Z,95076.41
2022-10-13T04:48:58.562Z,95082.13
2022-10-13T04:51:27.678Z,95081.44
2022-10-13T04:53:57.051Z,95080.41
2022-10-13T04:56:25.721Z,95083.00
2022-10-13T04:58:54.006Z,95087.44
2022-10-13T05:01:24.564Z,95090.69
2022-10-13T05:03:53.587Z,95093.97
2022-10-13T05:06:25.664Z,95091.53
2022-10-13T05:08:53.765Z,95095.97
2022-10-13T05:11:21.715Z,95094.91
2022-10-13T05:13:49.985Z,95100.47
2022-10-13T05:16:20.070Z,95107.97
2022-10-13T05:18:48.506Z,95105.22
2022-10-13T05:21:19.053Z,95101.16
2022-10-13T05:23:48.569Z,95118.28
2022-10-13T05:26:18.185Z,95115.22
2022-10-13T05:28:46.688Z,95123.25
2022-10-13T05:31:17.413Z,95119.47
2022-10-13T05:33:46.651Z,95117.84
2022-10-13T05:36:17.520Z,95114.00
2022-10-13T05:38:46.062Z,95124.31
2022-10-13T05:41:16.355Z,95125.78
2022-10-13T05:43:44.678Z,95128.19
2022-10-13T05:46:12.755Z,95124.56
2022-10-13T05:48:41.140Z,95143.16
2022-10-13T05:51:14.243Z,95146.28
2022-10-13T05:53:50.293Z,95146.19
2022-10-13T05:56:24.930Z,95135.84
2022-10-13T05:58:57.078Z,95150.13
2022-10-13T06:01:27.582Z,95158.00
2022-10-13T06:04:00.271Z,95152.81
2022-10-13T06:06:31.496Z,95151.31
2022-10-13T06:09:00.135Z,95153.53
2022-10-13T06:11:29.519Z,95143.47
2022-10-13T06:13:57.576Z,95150.00
2022-10-13T06:16:25.596Z,95158.66
2022-10-13T06:18:53.541Z,95143.16
2022-10-13T06:21:21.483Z,95150.09
2022-10-13T06:23:49.503Z,95156.25
2022-10-13T06:26:17.490Z,95151.31
2022-10-13T06:28:50.149Z,95148.41
2022-10-13T06:31:22.005Z,95156.78
2022-10-13T06:33:49.965Z,95155.00
2022-10-13T06:36:18.332Z,95154.06
2022-10-13T06:38:47.061Z,95149.09
2022-10-13T06:41:15.235Z,95152.22
2022-10-13T06:43:43.407Z,95145.31
2022-10-13T06:46:13.812Z,95141.38
2022-10-13T06:48:41.998Z,95147.47
2022-10-13T06:51:12.456Z,95146.34
2022-10-13T06:53:40.419Z,95144.75
2022-10-13T06:56:14.500Z,95137.94
2022-10-13T06:58:42.492Z,95150.03
2022-10-13T07:01:15.123Z,95146.66
2022-10-13T07:03:43.215Z,95144.22
2022-10-13T07:06:11.345Z,95135.91
2022-10-13T07:08:39.302Z,95142.09
2022-10-13T07:11:12.937Z,95148.13
2022-10-13T07:13:46.432Z,95149.63
2022-10-13T07:16:17.213Z,95151.88
2022-10-13T07:18:45.380Z,95153.06
2022-10-13T07:21:13.432Z,95144.13
2022-10-13T07:23:41.772Z,95149.31
2022-10-13T07:26:11.162Z,95149.19
2022-10-13T07:28:39.618Z,95141.69
2022-10-13T07:31:11.998Z,95160.41
2022-10-13T07:33:42.205Z,95164.63
2022-10-13T07:36:10.964Z,95165.09
2022-10-13T07:38:39.247Z,95158.63
2022-10-13T07:41:09.330Z,95161.53
2022-10-13T07:43:37.653Z,95153.06
2022-10-13T07:46:05.961Z,95144.59
2022-10-13T07:48:35.114Z,95156.13
2022-10-13T07:51:07.332Z,95162.63
2022-10-13T07:53:36.255Z,95162.63
2022-10-13T07:56:07.681Z,95165.88
2022-10-13T07:58:38.433Z,95166.38
2022-10-13T08:01:07.299Z,95163.75
2022-10-13T08:06:11.301Z,95167.63
2022-10-13T08:08:40.389Z,95165.13
2022-10-13T08:11:12.414Z,95161.38
2022-10-13T08:13:43.991Z,95178.78
2022-10-13T08:16:11.973Z,95169.63
2022-10-13T08:18:39.908Z,95177.25
2022-10-13T08:24:02.059Z,95176.41
2022-10-13T08:26:30.636Z,95157.22
2022-10-13T08:29:16.804Z,95170.88
2022-10-13T08:31:46.645Z,95173.22
2022-10-13T08:34:14.880Z,95173.97
2022-10-13T08:36:44.718Z,95172.47
2022-10-13T08:39:15.091Z,95172.22
2022-10-13T08:41:45.178Z,95175.28
2022-10-13T08:47:16.636Z,95178.91
2022-10-13T08:49:46.303Z,95179.16
2022-10-13T08:52:21.148Z,95178.63
2022-10-13T08:54:49.521Z,95171.00
2022-10-13T08:57:18.012Z,95173.25
2022-10-13T08:59:46.366Z,95164.25
2022-10-13T09:02:16.289Z,95163.84
2022-10-13T09:04:49.378Z,95165.66
2022-10-13T09:07:23.258Z,95161.34
2022-10-13T09:09:52.937Z,95158.88
2022-10-13T09:12:24.342Z,95159.84
2022-10-13T09:15:01.370Z,95157.44
2022-10-13T09:17:30.887Z,95155.38
2022-10-13T09:20:01.932Z,95167.84
2022-10-13T09:22:33.957Z,95160.59
2022-10-13T09:25:17.150Z,95155.59
2022-10-13T09:27:48.101Z,95152.75
2022-10-13T09:30:33.366Z,95148.31
2022-10-13T09:33:18.572Z,95151.06
2022-10-13T09:35:48.663Z,95143.94
2022-10-13T09:38:19.951Z,95141.09
2022-10-13T09:40:59.555Z,95147.56
2022-10-13T09:43:31.923Z,95156.44
2022-10-13T09:46:02.129Z,95150.59
2022-10-13T09:48:34.056Z,95161.56
2022-10-13T09:51:02.866Z,95154.59
2022-10-13T09:53:35.542Z,95162.38
2022-10-13T09:56:18.437Z,95149.97
2022-10-13T09:58:51.873Z,95158.94
2022-10-13T10:01:28.844Z,95150.03
2022-10-13T10:03:58.663Z,95151.00
2022-10-13T10:06:28.034Z,95142.44
2022-10-13T10:09:04.246Z,95134.69
2022-10-13T10:11:38.766Z,95132.78
2022-10-13T10:14:16.957Z,95133.00
2022-10-13T10:16:51.755Z,95125.22
2022-10-13T10:19:27.124Z,95123.00
2022-10-13T10:22:04.324Z,95117.00
2022-10-13T10:24:42.474Z,95116.13
2022-10-13T10:27:17.468Z,95111.38
2022-10-13T10:29:50.582Z,95115.78
2022-10-13T10:32:30.343Z,95118.78
2022-10-13T10:35:05.297Z,95099.03
2022-10-13T10:37:52.269Z,95093.56
2022-10-13T10:40:32.824Z,95099.13
2022-10-13T10:43:30.643Z,95097.06
2022-10-13T10:46:00.818Z,95088.47
2022-10-13T10:48:33.859Z,95078.88
2022-10-13T10:51:02.954Z,95088.47
2022-10-13T10:53:38.617Z,95081.81
2022-10-13T10:56:19.544Z,95079.38
2022-10-13T10:58:54.927Z,95064.53
2022-10-13T11:01:33.367Z,95064.78
2022-10-13T11:06:42.917Z,95063.81
2022-10-13T11:09:12.649Z,95065.44
2022-10-13T11:11:43.333Z,95047.84
2022-10-13T11:14:34.623Z,95048.44
2022-10-13T11:17:29.833Z,95054.22
2022-10-13T11:19:58.844Z,95050.59
2022-10-13T11:22:27.909Z,95046.50
2022-10-13T11:25:01.753Z,95042.09
2022-10-13T11:27:46.376Z,95040.81
2022-10-13T11:30:50.199Z,95035.75
2022-10-13T11:33:52.316Z,95028.44
2022-10-13T11:36:49.275Z,95025.31
2022-10-13T11:39:50.156Z,95005.88
2022-10-13T11:42:39.711Z,95005.69
2022-10-13T11:45:24.526Z,95004.16
2022-10-13T11:48:11.787Z,95003.16
2022-10-13T11:50:49.592Z,94981.38
2022-10-13T11:53:19.484Z,95004.91
2022-10-13T11:55:51.527Z,95000.75
2022-10-13T11:58:22.001Z,94998.81
2022-10-13T12:00:57.392Z,94992.56
2022-10-13T12:03:29.836Z,94994.44
2022-10-13T12:06:01.876Z,94994.19
2022-10-13T12:08:32.011Z,94984.50
2022-10-13T12:11:03.009Z,94989.31
2022-10-13T12:13:32.829Z,94988.28
2022-10-13T12:16:06.177Z,94981.13
2022-10-13T12:18:36.184Z,94978.56
2022-10-13T12:21:10.836Z,94980.53
2022-10-13T12:23:39.198Z,94975.81
2022-10-13T12:26:07.557Z,94976.78
2022-10-13T12:28:52.250Z,94977.16
2022-10-13T12:31:24.037Z,94989.56
2022-10-13T12:33:56.872Z,94978.63
2022-10-13T12:36:30.265Z,94982.25
2022-10-13T12:39:02.080Z,94978.16
2022-10-13T12:41:32.942Z,94965.13
2022-10-13T12:44:04.040Z,94964.63
2022-10-13T12:46:40.636Z,94951.88
2022-10-13T12:49:13.884Z,94957.66
2022-10-13T12:51:42.752Z,94951.78
2022-10-13T12:54:19.772Z,94949.66
2022-10-13T12:56:50.212Z,94954.28
2022-10-13T12:59:20.990Z,94958.91
2022-10-13T13:01:56.878Z,94952.94
2022-10-13T13:04:41.202Z,94943.69
2022-10-13T13:07:30.254Z,94941.28
2022-10-13T13:10:15.188Z,94930.25
2022-10-13T13:12:44.432Z,94938.53
2022-10-13T13:15:22.953Z,94940.31
2022-10-13T13:17:58.146Z,94935.75
2022-10-13T13:20:29.787Z,94936.13
2022-10-13T13:22:58.179Z,94928.75
2022-10-13T13:25:26.584Z,94927.75
2022-10-13T13:27:54.856Z,94941.38
2022-10-13T13:30:24.589Z,94934.00
2022-10-13T13:32:54.019Z,94934.84
2022-10-13T13:35:22.103Z,94934.19
2022-10-13T13:37:53.125Z,94927.16
2022-10-13T13:40:25.265Z,94924.34
2022-10-13T13:42:53.586Z,94937.03
2022-10-13T13:45:23.021Z,94922.78
2022-10-13T13:47:51.075Z,94925.41
2022-10-13T13:50:23.886Z,94922.38
2022-10-13T13:52:51.954Z,94927.97
2022-10-13T13:55:19.942Z,94926.84
2022-10-13T13:57:47.990Z,94920.31
2022-10-13T14:00:18.657Z,94917.91
2022-10-13T14:02:46.669Z,94921.13
2022-10-13T14:05:17.027Z,94919.47
2022-10-13T14:07:46.393Z,94925.41
2022-10-13T14:10:14.466Z,94917.38
2022-10-13T14:12:42.678Z,94915.16
2022-10-13T14:15:11.940Z,94918.19
2022-10-13T14:17:39.910Z,94921.25
2022-10-13T14:20:08.866Z,94917.78
2022-10-13T14:22:38.525Z,94905.69
2022-10-13T14:25:09.003Z,94900.94
2022-10-13T14:27:37.117Z,94915.63
2022-10-13T14:30:05.810Z,94907.91
2022-10-13T14:32:33.956Z,94916.84
2022-10-13T14:35:02.112Z,94912.28
2022-10-13T14:37:33.316Z,94919.47
2022-10-13T14:40:01.915Z,94911.31
2022-10-13T14:42:31.456Z,94918.41
2022-10-13T14:44:59.598Z,94918.97
2022-10-13T14:47:27.893Z,94908.28
2022-10-13T14:49:55.858Z,94917.50
2022-10-13T14:52:23.814Z,94916.88
2022-10-13T14:54:51.842Z,94917.91
2022-10-13T14:57:20.188Z,94911.38
2022-10-13T14:59:49.603Z,94911.94
2022-10-13T15:02:17.625Z,94900.81
2022-10-13T15:04:45.616Z,94918.91
2022-10-13T15:07:13.619Z,94917.97
2022-10-13T15:09:52.767Z,94917.28
2022-10-13T15:12:29.541Z,94915.06
2022-10-13T15:14:58.980Z,94911.88
2022-10-13T15:17:28.019Z,94903.38
2022-10-13T15:19:56.434Z,94911.31
2022-10-13T15:22:24.756Z,94903.47
2022-10-13T15:24:52.732Z,94901.69
2022-10-13T15:27:20.766Z,94917.06
2022-10-13T15:29:48.731Z,94924.72
2022-10-13T15:32:20.343Z,94913.63
2022-10-13T15:34:49.157Z,94921.13
2022-10-13T15:37:17.187Z,94911.06
2022-10-13T15:39:45.141Z,94919.97
2022-10-13T15:42:13.591Z,94922.00
2022-10-13T15:47:31.131Z,94913.75
2022-10-13T15:49:59.568Z,94905.88
2022-10-13T15:52:32.222Z,94911.13
2022-10-13T15:55:02.996Z,94919.22
2022-10-13T15:57:31.917Z,94919.66
2022-10-13T15:59:59.890Z,94925.91
2022-10-13T16:02:27.999Z,94926.53
2022-10-13T16:04:58.289Z,94935.19
2022-10-13T16:07:29.041Z,94932.78
2022-10-13T16:09:57.228Z,94928.53
2022-10-13T16:12:25.410Z,94922.69
2022-10-13T16:14:53.563Z,94927.13
2022-10-13T16:17:21.626Z,94924.47
2022-10-13T16:19:49.983Z,94929.72
2022-10-13T16:22:20.002Z,94933.78
2022-10-13T16:24:48.343Z,94933.34
2022-10-13T16:27:16.310Z,94930.72
2022-10-13T16:29:44.325Z,94929.38
2022-10-13T16:32:20.805Z,94926.94
2022-10-13T16:34:49.113Z,94931.16
2022-10-13T16:37:17.066Z,94939.06
2022-10-13T16:39:51.181Z,94942.06
2022-10-13T16:42:19.814Z,94938.59
2022-10-13T16:44:47.812Z,94939.44
2022-10-13T16:47:18.454Z,94935.41
2022-10-13T16:49:48.268Z,94920.22
2022-10-13T16:52:16.397Z,94932.19
2022-10-13T16:54:44.309Z,94940.44
2022-10-13T16:57:13.808Z,94925.13
2022-10-13T16:59:42.272Z,94945.50
2022-10-13T17:14:10.940Z,94930.16
2022-10-13T17:16:38.984Z,94931.09
2022-10-13T17:19:07.291Z,94930.53
2022-10-13T17:21:35.219Z,94939.38
2022-10-13T17:24:03.109Z,94930.91
2022-10-13T17:26:31.589Z,94935.09
2022-10-13T17:28:59.615Z,94925.22
2022-10-13T17:31:28.937Z,94920.75
2022-10-13T17:33:56.907Z,94928.78
2022-10-13T17:36:27.046Z,94934.59
2022-10-13T17:38:56.195Z,94927.09
2022-10-13T17:41:24.840Z,94919.00
2022-10-13T17:43:53.276Z,94927.66
2022-10-13T17:46:39.405Z,94938.75
2022-10-13T17:49:14.604Z,94936.94
2022-10-13T17:51:43.803Z,94930.91
2022-10-13T17:54:16.065Z,94923.38
2022-10-13T17:56:45.328Z,94928.44
2022-10-13T17:59:13.582Z,94934.84
2022-10-13T18:01:42.769Z,94931.56
2022-10-13T18:04:16.157Z,94933.94
2022-10-13T18:06:47.190Z,94931.34
2022-10-13T18:09:18.356Z,94933.94
2022-10-13T18:11:52.551Z,94914.66
2022-10-13T18:14:33.417Z,94888.84
2022-10-13T18:17:01.895Z,94923.63
2022-10-13T18:19:31.216Z,94922.00
2022-10-13T18:21:59.172Z,94932.22
2022-10-13T18:24:38.651Z,94940.00
2022-10-13T18:27:06.587Z,94940.47
2022-10-13T18:29:34.517Z,94936.22
2022-10-13T18:32:02.438Z,94932.69
2022-10-13T18:34:31.916Z,94943.44
2022-10-13T18:37:11.001Z,94942.16
2022-10-13T18:39:38.956Z,94947.91
2022-10-13T18:42:10.157Z,94925.38
2022-10-13T18:44:39.856Z,94945.78
2022-10-13T18:47:12.257Z,94939.13
2022-10-13T18:49:41.682Z,94942.38
2022-10-13T18:52:12.234Z,94942.91
2022-10-13T18:54:40.311Z,94947.16
2022-10-13T18:57:08.293Z,94948.41
2022-10-13T18:59:38.735Z,94958.81
2022-10-13T19:02:06.701Z,94950.88
2022-10-13T19:04:36.732Z,94945.28
2022-10-13T19:07:05.955Z,94944.06
2022-10-13T19:09:33.911Z,94948.03
2022-10-13T19:12:01.801Z,94949.16
2022-10-13T19:14:30.607Z,94951.16
2022-10-13T19:17:02.029Z,94949.91
2022-10-13T19:19:30.355Z,94948.41
2022-10-13T19:21:58.517Z,94945.53
2022-10-13T19:24:29.192Z,94942.78
2022-10-13T19:27:05.743Z,94940.81
2022-10-13T19:29:34.260Z,94945.97
2022-10-13T19:32:02.159Z,94947.22
2022-10-13T19:34:30.295Z,94944.06
2022-10-13T19:37:00.118Z,94941.25
2022-10-13T19:39:30.076Z,94934.19
2022-10-13T19:42:10.867Z,94929.97
2022-10-13T19:44:38.752Z,94933.22
2022-10-13T19:47:06.671Z,94931.59
2022-10-13T19:49:34.576Z,94933.59
2022-10-13T19:52:02.491Z,94941.53
2022-10-13T19:54:34.861Z,94940.28
2022-10-13T19:57:03.318Z,94946.97
2022-10-13T19:59:31.192Z,94927.97
2022-10-13T20:01:59.224Z,94946.25
2022-10-13T20:04:27.139Z,94942.28
2022-10-13T20:06:55.175Z,94941.53
2022-10-13T20:09:23.306Z,94932.91
2022-10-13T20:11:52.701Z,94931.09
2022-10-13T20:14:21.069Z,94935.50
2022-10-13T20:16:49.576Z,94935.00
2022-10-13T20:19:19.574Z,94938.41
2022-10-13T20:21:52.810Z,94944.19
2022-10-13T20:24:21.637Z,94938.16
2022-10-13T20:26:50.157Z,94945.00
2022-10-13T20:29:19.430Z,94936.34
2022-10-13T20:31:47.511Z,94932.94
2022-10-13T20:34:15.390Z,94928.25
2022-10-13T20:36:43.273Z,94934.03
2022-10-13T20:39:11.212Z,94934.03
2022-10-13T20:41:40.874Z,94926.94
2022-10-13T20:44:10.870Z,94927.13
2022-10-13T20:46:40.256Z,94932.75
2022-10-13T20:49:12.232Z,94917.84
2022-10-13T20:51:41.691Z,94925.50
2022-10-13T20:54:10.389Z,94921.25
2022-10-13T20:56:39.503Z,94917.31
2022-10-13T20:59:09.562Z,94917.50
2022-10-13T21:01:37.947Z,94918.06
2022-10-13T21:04:07.507Z,94919.66
2022-10-13T21:06:36.217Z,94915.44
2022-10-13T21:09:05.812Z,94912.53
2022-10-13T21:11:33.995Z,94905.88
2022-10-13T21:14:06.318Z,94920.28
2022-10-13T21:16:34.687Z,94922.72
2022-10-13T21:19:02.769Z,94918.66
2022-10-13T21:21:33.776Z,94909.94
2022-10-13T21:24:03.773Z,94908.84
2022-10-13T21:26:32.953Z,94906.75
2022-10-13T21:29:02.240Z,94898.06
2022-10-13T21:31:31.213Z,94899.75
2022-10-13T21:33:59.234Z,94895.97
2022-10-13T21:36:28.916Z,94899.41
2022-10-13T21:39:00.285Z,94881.88
2022-10-13T21:41:29.680Z,94883.47
2022-10-13T21:43:57.602Z,94886.53
2022-10-13T21:46:27.045Z,94876.19
2022-10-13T21:48:56.583Z,94874.75
2022-10-13T21:51:26.352Z,94873.41
2022-10-13T21:53:56.244Z,94872.34
2022-10-13T21:56:26.761Z,94872.16
2022-10-13T21:58:56.043Z,94864.41
2022-10-13T22:01:24.776Z,94876.19
2022-10-13T22:03:56.285Z,94872.50
2022-10-13T22:06:25.052Z,94854.59
2022-10-13T22:08:54.566Z,94868.91
2022-10-13T22:11:23.727Z,94863.34
2022-10-13T22:13:53.280Z,94853.44
2022-10-13T22:16:23.679Z,94861.53
2022-10-13T22:18:53.163Z,94866.47
2022-10-13T22:21:22.455Z,94868.09
2022-10-13T22:23:50.588Z,94874.13
2022-10-13T22:26:20.092Z,94880.59
2022-10-13T22:28:51.513Z,94881.41
2022-10-13T22:31:20.867Z,94876.81
2022-10-13T22:33:48.943Z,94873.41
2022-10-13T22:36:18.926Z,94863.69
2022-10-13T22:38:48.675Z,94876.38
2022-10-13T22:41:17.716Z,94875.38
2022-10-13T22:43:47.955Z,94871.16
2022-10-13T22:46:17.499Z,94873.13
2022-10-13T22:48:46.815Z,94871.97
2022-10-13T22:51:16.551Z,94870.00
2022-10-13T22:53:44.861Z,94869.34
2022-10-13T22:56:15.014Z,94860.91
2022-10-13T22:58:44.271Z,94863.34
2022-10-13T23:01:13.899Z,94868.38
2022-10-13T23:03:42.140Z,94878.47
2022-10-13T23:06:14.709Z,94870.91
2022-10-13T23:08:42.619Z,94867.28
2022-10-13T23:11:11.068Z,94868.56
2022-10-13T23:13:39.062Z,94865.94
2022-10-13T23:16:09.421Z,94854.41
2022-10-13T23:18:37.305Z,94874.66
2022-10-13T23:21:06.676Z,94871.88
2022-10-13T23:23:36.174Z,94866.66
2022-10-13T23:26:05.515Z,94874.75
2022-10-13T23:28:33.920Z,94876.72
2022-10-13T23:31:02.499Z,94872.69
2022-10-13T23:33:31.275Z,94874.13
2022-10-13T23:36:00.754Z,94875.56
2022-10-13T23:38:29.749Z,94870.06
2022-10-13T23:41:03.981Z,94875.63
2022-10-13T23:43:31.901Z,94869.63
2022-10-13T23:46:00.011Z,94861.06
2022-10-13T23:48:28.574Z,94879.41
2022-10-13T23:50:57.001Z,94881.75
2022-10-13T23:53:24.946Z,94871.78
2022-10-13T23:55:52.834Z,94869.81
2022-10-13T23:58:22.061Z,94882.03
